Terminal Aerodrome Forecast
Issued by NWS

Home | Current Version | Previous Version | Text Only | Print | Product List | Glossary On
Versions: 1 2 3 4 5 6 7 8 9 10 11 12 13
143
FTUS43 KEAX 170539
TAFSTJ
TAF
KSTJ 170539Z 1706/1806 00000KT P6SM BKN150
     FM171000 19008KT P6SM VCSH OVC070
     FM171200 19007KT 4SM -RA BR OVC020
     FM171700 22006KT P6SM OVC020=

USA.gov is the U.S. government's official web portal to all federal, state and local government web resources and services.